sensor_id;sensor_type;location;lat;lon;timestamp;P1;durP1;ratioP1;P2;durP2;ratioP2
70675;SDS011;59069;52.242;20.900;2022-10-16T00:00:32;18.77;;;8.70;;
70675;SDS011;59069;52.242;20.900;2022-10-16T00:02:59;15.70;;;8.77;;
70675;SDS011;59069;52.242;20.900;2022-10-16T00:05:25;18.47;;;8.40;;
70675;SDS011;59069;52.242;20.900;2022-10-16T00:07:50;20.17;;;9.00;;
70675;SDS011;59069;52.242;20.900;2022-10-16T00:10:15;15.97;;;8.43;;
70675;SDS011;59069;52.242;20.900;2022-10-16T00:12:41;15.27;;;7.82;;
70675;SDS011;59069;52.242;20.900;2022-10-16T00:15:06;15.97;;;7.93;;
70675;SDS011;59069;52.242;20.900;2022-10-16T00:17:32;16.05;;;8.07;;
70675;SDS011;59069;52.242;20.900;2022-10-16T00:19:58;16.27;;;7.37;;
70675;SDS011;59069;52.242;20.900;2022-10-16T00:22:23;15.90;;;7.83;;
70675;SDS011;59069;52.242;20.900;2022-10-16T00:24:49;15.00;;;7.38;;
70675;SDS011;59069;52.242;20.900;2022-10-16T00:27:14;14.53;;;7.10;;
70675;SDS011;59069;52.242;20.900;2022-10-16T00:29:40;15.60;;;7.57;;
70675;SDS011;59069;52.242;20.900;2022-10-16T00:32:05;14.00;;;7.00;;
70675;SDS011;59069;52.242;20.900;2022-10-16T00:34:30;13.97;;;7.57;;
70675;SDS011;59069;52.242;20.900;2022-10-16T00:36:56;14.87;;;6.87;;
70675;SDS011;59069;52.242;20.900;2022-10-16T00:39:21;17.73;;;7.20;;
70675;SDS011;59069;52.242;20.900;2022-10-16T00:41:47;13.23;;;6.95;;
70675;SDS011;59069;52.242;20.900;2022-10-16T00:47:50;12.38;;;6.85;;
70675;SDS011;59069;52.242;20.900;2022-10-16T00:50:12;15.03;;;7.47;;
70675;SDS011;59069;52.242;20.900;2022-10-16T00:52:43;15.18;;;7.43;;
70675;SDS011;59069;52.242;20.900;2022-10-16T00:55:12;17.40;;;8.07;;
70675;SDS011;59069;52.242;20.900;2022-10-16T00:57:37;17.37;;;8.40;;
70675;SDS011;59069;52.242;20.900;2022-10-16T01:00:05;14.82;;;8.18;;
70675;SDS011;59069;52.242;20.900;2022-10-16T01:02:34;16.30;;;8.20;;
70675;SDS011;59069;52.242;20.900;2022-10-16T01:04:59;15.77;;;7.70;;
70675;SDS011;59069;52.242;20.900;2022-10-16T01:13:07;19.70;;;8.27;;
70675;SDS011;59069;52.242;20.900;2022-10-16T01:15:51;15.43;;;9.02;;
70675;SDS011;59069;52.242;20.900;2022-10-16T01:18:49;16.83;;;8.37;;
70675;SDS011;59069;52.242;20.900;2022-10-16T01:21:29;17.38;;;9.30;;
70675;SDS011;59069;52.242;20.900;2022-10-16T01:29:52;17.17;;;9.05;;
70675;SDS011;59069;52.242;20.900;2022-10-16T01:32:42;17.53;;;9.23;;
70675;SDS011;59069;52.242;20.900;2022-10-16T01:35:16;17.33;;;8.95;;
70675;SDS011;59069;52.242;20.900;2022-10-16T01:37:49;18.48;;;9.15;;
70675;SDS011;59069;52.242;20.900;2022-10-16T01:40:19;17.15;;;9.27;;
70675;SDS011;59069;52.242;20.900;2022-10-16T01:42:46;18.58;;;9.98;;
70675;SDS011;59069;52.242;20.900;2022-10-16T01:45:18;16.90;;;8.90;;
70675;SDS011;59069;52.242;20.900;2022-10-16T01:47:45;17.17;;;9.40;;
70675;SDS011;59069;52.242;20.900;2022-10-16T01:50:12;19.42;;;9.20;;
70675;SDS011;59069;52.242;20.900;2022-10-16T01:52:42;18.95;;;10.13;;
70675;SDS011;59069;52.242;20.900;2022-10-16T01:55:12;20.17;;;9.77;;
70675;SDS011;59069;52.242;20.900;2022-10-16T01:57:41;19.10;;;9.23;;
70675;SDS011;59069;52.242;20.900;2022-10-16T02:00:10;18.70;;;9.70;;
70675;SDS011;59069;52.242;20.900;2022-10-16T02:02:39;19.33;;;9.85;;
70675;SDS011;59069;52.242;20.900;2022-10-16T02:07:53;19.67;;;9.30;;
70675;SDS011;59069;52.242;20.900;2022-10-16T02:10:19;20.43;;;10.50;;
70675;SDS011;59069;52.242;20.900;2022-10-16T02:12:47;18.00;;;10.07;;
70675;SDS011;59069;52.242;20.900;2022-10-16T02:15:21;20.92;;;10.43;;
70675;SDS011;59069;52.242;20.900;2022-10-16T02:17:46;23.67;;;10.77;;
70675;SDS011;59069;52.242;20.900;2022-10-16T02:20:12;22.20;;;10.10;;
70675;SDS011;59069;52.242;20.900;2022-10-16T02:22:41;22.27;;;10.80;;
70675;SDS011;59069;52.242;20.900;2022-10-16T02:25:19;18.70;;;10.47;;
70675;SDS011;59069;52.242;20.900;2022-10-16T02:30:30;22.38;;;11.23;;
70675;SDS011;59069;52.242;20.900;2022-10-16T02:32:58;20.00;;;10.57;;
70675;SDS011;59069;52.242;20.900;2022-10-16T02:35:27;22.63;;;11.07;;
70675;SDS011;59069;52.242;20.900;2022-10-16T02:37:55;19.27;;;11.10;;
70675;SDS011;59069;52.242;20.900;2022-10-16T02:40:21;24.63;;;11.07;;
70675;SDS011;59069;52.242;20.900;2022-10-16T02:42:50;21.63;;;11.38;;
70675;SDS011;59069;52.242;20.900;2022-10-16T02:45:17;23.27;;;11.00;;
70675;SDS011;59069;52.242;20.900;2022-10-16T02:47:43;21.48;;;11.15;;
70675;SDS011;59069;52.242;20.900;2022-10-16T02:50:08;20.03;;;10.60;;
70675;SDS011;59069;52.242;20.900;2022-10-16T02:52:34;20.00;;;11.10;;
70675;SDS011;59069;52.242;20.900;2022-10-16T02:54:59;21.33;;;10.87;;
70675;SDS011;59069;52.242;20.900;2022-10-16T02:57:24;20.50;;;11.18;;
70675;SDS011;59069;52.242;20.900;2022-10-16T02:59:50;22.67;;;11.77;;
70675;SDS011;59069;52.242;20.900;2022-10-16T03:02:15;20.80;;;11.33;;
70675;SDS011;59069;52.242;20.900;2022-10-16T03:04:41;21.00;;;11.23;;
70675;SDS011;59069;52.242;20.900;2022-10-16T03:07:06;22.67;;;11.37;;
70675;SDS011;59069;52.242;20.900;2022-10-16T03:09:32;23.58;;;11.50;;
70675;SDS011;59069;52.242;20.900;2022-10-16T03:11:58;23.60;;;12.18;;
70675;SDS011;59069;52.242;20.900;2022-10-16T03:14:23;22.20;;;11.43;;
70675;SDS011;59069;52.242;20.900;2022-10-16T03:16:48;22.87;;;12.47;;
70675;SDS011;59069;52.242;20.900;2022-10-16T03:19:16;20.93;;;10.83;;
70675;SDS011;59069;52.242;20.900;2022-10-16T03:21:42;20.65;;;11.45;;
70675;SDS011;59069;52.242;20.900;2022-10-16T03:24:08;23.80;;;12.40;;
70675;SDS011;59069;52.242;20.900;2022-10-16T03:26:33;22.15;;;11.52;;
70675;SDS011;59069;52.242;20.900;2022-10-16T03:28:58;23.23;;;11.77;;
70675;SDS011;59069;52.242;20.900;2022-10-16T03:31:24;22.30;;;12.00;;
70675;SDS011;59069;52.242;20.900;2022-10-16T03:33:49;22.57;;;11.07;;
70675;SDS011;59069;52.242;20.900;2022-10-16T03:36:14;23.87;;;12.23;;
70675;SDS011;59069;52.242;20.900;2022-10-16T03:38:40;26.85;;;12.43;;
70675;SDS011;59069;52.242;20.900;2022-10-16T03:41:05;19.83;;;11.40;;
70675;SDS011;59069;52.242;20.900;2022-10-16T03:43:32;21.63;;;11.07;;
70675;SDS011;59069;52.242;20.900;2022-10-16T03:45:58;23.50;;;11.23;;
70675;SDS011;59069;52.242;20.900;2022-10-16T03:48:23;22.67;;;11.70;;
70675;SDS011;59069;52.242;20.900;2022-10-16T03:50:49;21.03;;;12.30;;
70675;SDS011;59069;52.242;20.900;2022-10-16T03:53:16;22.33;;;11.43;;
70675;SDS011;59069;52.242;20.900;2022-10-16T03:55:42;21.20;;;11.77;;
70675;SDS011;59069;52.242;20.900;2022-10-16T03:58:08;21.30;;;11.35;;
70675;SDS011;59069;52.242;20.900;2022-10-16T04:00:33;20.97;;;11.37;;
70675;SDS011;59069;52.242;20.900;2022-10-16T04:02:59;25.10;;;11.68;;
70675;SDS011;59069;52.242;20.900;2022-10-16T04:05:25;20.70;;;10.90;;
70675;SDS011;59069;52.242;20.900;2022-10-16T04:07:50;23.23;;;11.85;;
70675;SDS011;59069;52.242;20.900;2022-10-16T04:10:16;23.00;;;11.23;;
70675;SDS011;59069;52.242;20.900;2022-10-16T04:12:41;21.93;;;11.03;;
70675;SDS011;59069;52.242;20.900;2022-10-16T04:15:10;24.60;;;11.32;;
70675;SDS011;59069;52.242;20.900;2022-10-16T04:17:35;21.97;;;11.40;;
70675;SDS011;59069;52.242;20.900;2022-10-16T04:20:00;19.98;;;11.00;;
70675;SDS011;59069;52.242;20.900;2022-10-16T04:22:26;22.40;;;10.97;;
70675;SDS011;59069;52.242;20.900;2022-10-16T04:24:51;21.57;;;10.77;;
70675;SDS011;59069;52.242;20.900;2022-10-16T04:27:17;20.37;;;11.17;;
70675;SDS011;59069;52.242;20.900;2022-10-16T04:29:42;22.40;;;10.93;;
70675;SDS011;59069;52.242;20.900;2022-10-16T04:32:08;24.57;;;11.33;;
70675;SDS011;59069;52.242;20.900;2022-10-16T04:34:34;19.20;;;10.77;;
70675;SDS011;59069;52.242;20.900;2022-10-16T04:36:59;21.10;;;11.10;;
70675;SDS011;59069;52.242;20.900;2022-10-16T04:39:25;19.13;;;10.63;;
70675;SDS011;59069;52.242;20.900;2022-10-16T04:41:50;21.73;;;11.87;;
70675;SDS011;59069;52.242;20.900;2022-10-16T04:44:16;21.50;;;10.80;;
70675;SDS011;59069;52.242;20.900;2022-10-16T04:46:41;18.97;;;11.00;;
70675;SDS011;59069;52.242;20.900;2022-10-16T04:49:07;21.60;;;11.23;;
70675;SDS011;59069;52.242;20.900;2022-10-16T04:51:32;22.80;;;11.38;;
70675;SDS011;59069;52.242;20.900;2022-10-16T04:53:58;22.13;;;11.77;;
70675;SDS011;59069;52.242;20.900;2022-10-16T04:56:23;21.37;;;11.53;;
70675;SDS011;59069;52.242;20.900;2022-10-16T04:58:49;19.70;;;10.50;;
70675;SDS011;59069;52.242;20.900;2022-10-16T05:01:14;19.13;;;11.63;;
70675;SDS011;59069;52.242;20.900;2022-10-16T05:03:40;21.10;;;11.10;;
70675;SDS011;59069;52.242;20.900;2022-10-16T05:06:06;23.73;;;12.02;;
70675;SDS011;59069;52.242;20.900;2022-10-16T05:08:32;19.73;;;11.00;;
70675;SDS011;59069;52.242;20.900;2022-10-16T05:10:57;23.17;;;11.23;;
70675;SDS011;59069;52.242;20.900;2022-10-16T05:13:23;22.83;;;11.83;;
70675;SDS011;59069;52.242;20.900;2022-10-16T05:15:48;22.23;;;11.77;;
70675;SDS011;59069;52.242;20.900;2022-10-16T05:18:14;19.98;;;11.40;;
70675;SDS011;59069;52.242;20.900;2022-10-16T05:20:40;21.33;;;11.85;;
70675;SDS011;59069;52.242;20.900;2022-10-16T05:23:07;24.43;;;11.10;;
70675;SDS011;59069;52.242;20.900;2022-10-16T05:25:32;22.48;;;11.77;;
70675;SDS011;59069;52.242;20.900;2022-10-16T05:27:58;19.27;;;11.57;;
70675;SDS011;59069;52.242;20.900;2022-10-16T05:30:23;22.87;;;11.47;;
70675;SDS011;59069;52.242;20.900;2022-10-16T05:32:49;59.90;;;24.67;;
70675;SDS011;59069;52.242;20.900;2022-10-16T05:35:15;22.40;;;12.77;;
70675;SDS011;59069;52.242;20.900;2022-10-16T05:37:41;21.00;;;11.82;;
70675;SDS011;59069;52.242;20.900;2022-10-16T05:40:07;21.83;;;11.60;;
70675;SDS011;59069;52.242;20.900;2022-10-16T05:42:33;20.65;;;11.70;;
70675;SDS011;59069;52.242;20.900;2022-10-16T05:44:59;19.80;;;11.87;;
70675;SDS011;59069;52.242;20.900;2022-10-16T05:47:24;22.20;;;12.10;;
70675;SDS011;59069;52.242;20.900;2022-10-16T05:49:50;21.63;;;11.77;;
70675;SDS011;59069;52.242;20.900;2022-10-16T05:52:15;22.25;;;11.88;;
70675;SDS011;59069;52.242;20.900;2022-10-16T05:54:40;20.83;;;11.40;;
70675;SDS011;59069;52.242;20.900;2022-10-16T05:57:06;21.13;;;11.77;;
70675;SDS011;59069;52.242;20.900;2022-10-16T05:59:31;20.27;;;11.50;;
70675;SDS011;59069;52.242;20.900;2022-10-16T06:01:57;23.00;;;12.32;;
70675;SDS011;59069;52.242;20.900;2022-10-16T06:04:22;23.73;;;11.57;;
70675;SDS011;59069;52.242;20.900;2022-10-16T06:06:48;59.17;;;27.97;;
70675;SDS011;59069;52.242;20.900;2022-10-16T06:09:13;57.53;;;32.77;;
70675;SDS011;59069;52.242;20.900;2022-10-16T06:11:39;31.23;;;19.23;;
70675;SDS011;59069;52.242;20.900;2022-10-16T06:14:04;22.07;;;12.10;;
70675;SDS011;59069;52.242;20.900;2022-10-16T06:16:32;41.78;;;25.23;;
70675;SDS011;59069;52.242;20.900;2022-10-16T06:18:59;23.92;;;12.43;;
70675;SDS011;59069;52.242;20.900;2022-10-16T06:21:25;21.98;;;11.95;;
70675;SDS011;59069;52.242;20.900;2022-10-16T06:23:51;22.50;;;11.20;;
70675;SDS011;59069;52.242;20.900;2022-10-16T06:26:18;21.67;;;11.73;;
70675;SDS011;59069;52.242;20.900;2022-10-16T06:28:45;23.30;;;11.63;;
70675;SDS011;59069;52.242;20.900;2022-10-16T06:31:11;21.45;;;11.80;;
70675;SDS011;59069;52.242;20.900;2022-10-16T06:33:37;23.33;;;11.05;;
70675;SDS011;59069;52.242;20.900;2022-10-16T06:36:13;19.43;;;11.20;;
70675;SDS011;59069;52.242;20.900;2022-10-16T06:38:41;19.88;;;11.23;;
70675;SDS011;59069;52.242;20.900;2022-10-16T06:41:07;17.75;;;10.48;;
70675;SDS011;59069;52.242;20.900;2022-10-16T06:43:36;21.50;;;11.88;;
70675;SDS011;59069;52.242;20.900;2022-10-16T06:46:02;26.10;;;13.77;;
70675;SDS011;59069;52.242;20.900;2022-10-16T06:48:30;18.25;;;11.05;;
70675;SDS011;59069;52.242;20.900;2022-10-16T06:51:00;22.00;;;10.70;;
70675;SDS011;59069;52.242;20.900;2022-10-16T06:53:31;22.35;;;10.55;;
70675;SDS011;59069;52.242;20.900;2022-10-16T06:56:01;23.48;;;11.18;;
70675;SDS011;59069;52.242;20.900;2022-10-16T06:58:38;19.48;;;9.98;;
70675;SDS011;59069;52.242;20.900;2022-10-16T07:01:04;18.07;;;10.40;;
70675;SDS011;59069;52.242;20.900;2022-10-16T07:03:30;18.55;;;10.13;;
70675;SDS011;59069;52.242;20.900;2022-10-16T07:05:55;20.13;;;10.77;;
70675;SDS011;59069;52.242;20.900;2022-10-16T07:08:21;19.20;;;10.07;;
70675;SDS011;59069;52.242;20.900;2022-10-16T07:10:47;17.75;;;10.43;;
70675;SDS011;59069;52.242;20.900;2022-10-16T07:13:12;18.67;;;10.83;;
70675;SDS011;59069;52.242;20.900;2022-10-16T07:15:39;21.77;;;11.05;;
70675;SDS011;59069;52.242;20.900;2022-10-16T07:18:05;19.87;;;9.87;;
70675;SDS011;59069;52.242;20.900;2022-10-16T07:20:30;18.80;;;10.65;;
70675;SDS011;59069;52.242;20.900;2022-10-16T07:22:56;17.63;;;9.70;;
70675;SDS011;59069;52.242;20.900;2022-10-16T07:25:21;19.60;;;10.90;;
70675;SDS011;59069;52.242;20.900;2022-10-16T07:27:47;22.40;;;10.63;;
70675;SDS011;59069;52.242;20.900;2022-10-16T07:30:12;18.38;;;10.30;;
70675;SDS011;59069;52.242;20.900;2022-10-16T07:32:38;18.90;;;10.40;;
70675;SDS011;59069;52.242;20.900;2022-10-16T07:35:03;21.27;;;11.47;;
70675;SDS011;59069;52.242;20.900;2022-10-16T07:37:30;20.80;;;10.93;;
70675;SDS011;59069;52.242;20.900;2022-10-16T07:39:55;17.53;;;10.87;;
70675;SDS011;59069;52.242;20.900;2022-10-16T07:42:20;18.63;;;11.02;;
70675;SDS011;59069;52.242;20.900;2022-10-16T07:44:46;19.30;;;10.63;;
70675;SDS011;59069;52.242;20.900;2022-10-16T07:47:11;20.03;;;11.00;;
70675;SDS011;59069;52.242;20.900;2022-10-16T07:49:37;24.07;;;11.73;;
70675;SDS011;59069;52.242;20.900;2022-10-16T07:52:02;19.98;;;10.73;;
70675;SDS011;59069;52.242;20.900;2022-10-16T07:54:28;58.83;;;31.03;;
70675;SDS011;59069;52.242;20.900;2022-10-16T07:56:53;44.33;;;24.63;;
70675;SDS011;59069;52.242;20.900;2022-10-16T07:59:18;20.93;;;11.53;;
70675;SDS011;59069;52.242;20.900;2022-10-16T08:01:44;20.20;;;10.50;;
70675;SDS011;59069;52.242;20.900;2022-10-16T08:04:09;18.08;;;10.27;;
70675;SDS011;59069;52.242;20.900;2022-10-16T08:06:36;21.57;;;10.00;;
70675;SDS011;59069;52.242;20.900;2022-10-16T08:09:03;16.23;;;9.35;;
70675;SDS011;59069;52.242;20.900;2022-10-16T08:11:28;15.75;;;9.93;;
70675;SDS011;59069;52.242;20.900;2022-10-16T08:13:54;17.23;;;10.20;;
70675;SDS011;59069;52.242;20.900;2022-10-16T08:16:19;16.53;;;9.27;;
70675;SDS011;59069;52.242;20.900;2022-10-16T08:18:46;18.13;;;9.30;;
70675;SDS011;59069;52.242;20.900;2022-10-16T08:21:15;16.83;;;9.83;;
70675;SDS011;59069;52.242;20.900;2022-10-16T08:23:42;17.10;;;9.52;;
70675;SDS011;59069;52.242;20.900;2022-10-16T08:26:09;16.98;;;9.57;;
70675;SDS011;59069;52.242;20.900;2022-10-16T08:28:35;15.70;;;8.90;;
70675;SDS011;59069;52.242;20.900;2022-10-16T08:31:34;16.15;;;9.23;;
70675;SDS011;59069;52.242;20.900;2022-10-16T08:33:52;17.20;;;9.07;;
70675;SDS011;59069;52.242;20.900;2022-10-16T08:36:17;13.93;;;8.73;;
70675;SDS011;59069;52.242;20.900;2022-10-16T08:38:43;15.80;;;8.80;;
70675;SDS011;59069;52.242;20.900;2022-10-16T08:47:16;15.90;;;9.18;;
70675;SDS011;59069;52.242;20.900;2022-10-16T08:49:53;15.80;;;9.17;;
70675;SDS011;59069;52.242;20.900;2022-10-16T08:52:22;15.88;;;8.57;;
70675;SDS011;59069;52.242;20.900;2022-10-16T08:54:53;18.58;;;9.85;;
70675;SDS011;59069;52.242;20.900;2022-10-16T08:57:21;15.65;;;8.77;;
70675;SDS011;59069;52.242;20.900;2022-10-16T08:59:48;15.10;;;8.60;;
70675;SDS011;59069;52.242;20.900;2022-10-16T09:02:23;17.10;;;9.10;;
70675;SDS011;59069;52.242;20.900;2022-10-16T09:18:19;14.18;;;8.35;;
70675;SDS011;59069;52.242;20.900;2022-10-16T09:21:11;15.60;;;7.72;;
70675;SDS011;59069;52.242;20.900;2022-10-16T09:23:40;14.27;;;8.02;;
70675;SDS011;59069;52.242;20.900;2022-10-16T09:26:09;20.13;;;11.93;;
70675;SDS011;59069;52.242;20.900;2022-10-16T09:28:37;18.10;;;11.52;;
70675;SDS011;59069;52.242;20.900;2022-10-16T09:31:02;15.40;;;8.37;;
70675;SDS011;59069;52.242;20.900;2022-10-16T09:33:37;14.87;;;8.47;;
70675;SDS011;59069;52.242;20.900;2022-10-16T09:36:05;14.10;;;8.30;;
70675;SDS011;59069;52.242;20.900;2022-10-16T09:38:34;13.90;;;8.25;;
70675;SDS011;59069;52.242;20.900;2022-10-16T09:41:02;14.27;;;8.52;;
70675;SDS011;59069;52.242;20.900;2022-10-16T09:46:28;15.10;;;8.57;;
70675;SDS011;59069;52.242;20.900;2022-10-16T09:49:03;16.80;;;8.43;;
70675;SDS011;59069;52.242;20.900;2022-10-16T09:51:35;13.32;;;7.85;;
70675;SDS011;59069;52.242;20.900;2022-10-16T09:54:02;16.70;;;8.55;;
70675;SDS011;59069;52.242;20.900;2022-10-16T09:56:39;14.77;;;8.73;;
70675;SDS011;59069;52.242;20.900;2022-10-16T09:59:23;14.98;;;8.40;;
70675;SDS011;59069;52.242;20.900;2022-10-16T10:01:50;14.63;;;8.13;;
70675;SDS011;59069;52.242;20.900;2022-10-16T10:04:21;14.90;;;9.05;;
70675;SDS011;59069;52.242;20.900;2022-10-16T10:06:49;14.90;;;8.30;;
70675;SDS011;59069;52.242;20.900;2022-10-16T10:09:23;14.60;;;8.47;;
70675;SDS011;59069;52.242;20.900;2022-10-16T10:17:02;14.85;;;8.48;;
70675;SDS011;59069;52.242;20.900;2022-10-16T10:19:37;14.32;;;8.95;;
70675;SDS011;59069;52.242;20.900;2022-10-16T10:38:31;13.82;;;7.93;;
70675;SDS011;59069;52.242;20.900;2022-10-16T10:43:40;14.77;;;8.40;;
70675;SDS011;59069;52.242;20.900;2022-10-16T10:46:32;17.80;;;8.15;;
70675;SDS011;59069;52.242;20.900;2022-10-16T10:51:48;14.50;;;8.75;;
70675;SDS011;59069;52.242;20.900;2022-10-16T10:54:34;13.63;;;8.35;;
70675;SDS011;59069;52.242;20.900;2022-10-16T11:03:13;18.67;;;11.77;;
70675;SDS011;59069;52.242;20.900;2022-10-16T11:05:45;18.17;;;9.73;;
70675;SDS011;59069;52.242;20.900;2022-10-16T11:08:29;14.65;;;7.97;;
70675;SDS011;59069;52.242;20.900;2022-10-16T11:11:01;14.70;;;8.02;;
70675;SDS011;59069;52.242;20.900;2022-10-16T11:13:34;14.13;;;8.15;;
70675;SDS011;59069;52.242;20.900;2022-10-16T11:16:11;14.73;;;8.20;;
70675;SDS011;59069;52.242;20.900;2022-10-16T11:18:52;15.65;;;8.68;;
70675;SDS011;59069;52.242;20.900;2022-10-16T11:21:28;16.58;;;8.43;;
70675;SDS011;59069;52.242;20.900;2022-10-16T11:23:59;15.05;;;8.70;;
70675;SDS011;59069;52.242;20.900;2022-10-16T11:26:31;13.80;;;8.07;;
70675;SDS011;59069;52.242;20.900;2022-10-16T11:29:00;12.50;;;8.43;;
70675;SDS011;59069;52.242;20.900;2022-10-16T11:33:57;16.20;;;8.30;;
70675;SDS011;59069;52.242;20.900;2022-10-16T11:36:31;14.10;;;8.02;;
70675;SDS011;59069;52.242;20.900;2022-10-16T11:39:08;13.33;;;7.83;;
70675;SDS011;59069;52.242;20.900;2022-10-16T11:41:41;14.98;;;8.63;;
70675;SDS011;59069;52.242;20.900;2022-10-16T11:49:30;15.90;;;8.55;;
70675;SDS011;59069;52.242;20.900;2022-10-16T11:52:06;13.67;;;7.77;;
70675;SDS011;59069;52.242;20.900;2022-10-16T11:57:29;13.13;;;7.72;;
70675;SDS011;59069;52.242;20.900;2022-10-16T11:59:59;14.68;;;7.63;;
70675;SDS011;59069;52.242;20.900;2022-10-16T12:05:18;12.77;;;7.30;;
70675;SDS011;59069;52.242;20.900;2022-10-16T12:08:08;13.77;;;6.55;;
70675;SDS011;59069;52.242;20.900;2022-10-16T12:10:36;13.18;;;7.05;;
70675;SDS011;59069;52.242;20.900;2022-10-16T12:13:48;12.93;;;6.70;;
70675;SDS011;59069;52.242;20.900;2022-10-16T12:18:50;14.23;;;7.97;;
70675;SDS011;59069;52.242;20.900;2022-10-16T12:21:34;20.58;;;13.02;;
70675;SDS011;59069;52.242;20.900;2022-10-16T12:24:00;16.97;;;10.77;;
70675;SDS011;59069;52.242;20.900;2022-10-16T12:26:30;16.08;;;9.02;;
70675;SDS011;59069;52.242;20.900;2022-10-16T12:29:11;12.43;;;7.00;;
70675;SDS011;59069;52.242;20.900;2022-10-16T12:31:42;12.23;;;6.20;;
70675;SDS011;59069;52.242;20.900;2022-10-16T12:34:23;12.85;;;7.63;;
70675;SDS011;59069;52.242;20.900;2022-10-16T12:36:53;13.70;;;7.03;;
70675;SDS011;59069;52.242;20.900;2022-10-16T12:39:22;12.70;;;7.18;;
70675;SDS011;59069;52.242;20.900;2022-10-16T12:44:50;14.05;;;6.90;;
70675;SDS011;59069;52.242;20.900;2022-10-16T12:47:35;14.40;;;7.20;;
70675;SDS011;59069;52.242;20.900;2022-10-16T12:50:26;14.73;;;7.45;;
70675;SDS011;59069;52.242;20.900;2022-10-16T12:52:55;16.25;;;8.30;;
70675;SDS011;59069;52.242;20.900;2022-10-16T12:55:21;12.50;;;7.57;;
70675;SDS011;59069;52.242;20.900;2022-10-16T13:00:26;14.23;;;8.05;;
70675;SDS011;59069;52.242;20.900;2022-10-16T13:08:50;13.02;;;7.70;;
70675;SDS011;59069;52.242;20.900;2022-10-16T13:17:55;16.00;;;8.07;;
70675;SDS011;59069;52.242;20.900;2022-10-16T13:23:01;14.50;;;8.07;;
70675;SDS011;59069;52.242;20.900;2022-10-16T13:28:13;16.58;;;8.52;;
70675;SDS011;59069;52.242;20.900;2022-10-16T13:30:42;13.93;;;7.97;;
70675;SDS011;59069;52.242;20.900;2022-10-16T13:35:35;15.43;;;8.50;;
70675;SDS011;59069;52.242;20.900;2022-10-16T13:38:14;14.65;;;7.35;;
70675;SDS011;59069;52.242;20.900;2022-10-16T13:40:55;13.80;;;7.80;;
70675;SDS011;59069;52.242;20.900;2022-10-16T13:43:22;14.20;;;7.50;;
70675;SDS011;59069;52.242;20.900;2022-10-16T13:45:58;12.70;;;7.15;;
70675;SDS011;59069;52.242;20.900;2022-10-16T13:48:25;15.63;;;7.90;;
70675;SDS011;59069;52.242;20.900;2022-10-16T13:51:10;17.23;;;7.88;;
70675;SDS011;59069;52.242;20.900;2022-10-16T13:53:40;13.25;;;7.07;;
70675;SDS011;59069;52.242;20.900;2022-10-16T13:56:09;37.15;;;21.75;;
70675;SDS011;59069;52.242;20.900;2022-10-16T13:58:39;51.72;;;30.10;;
70675;SDS011;59069;52.242;20.900;2022-10-16T14:01:06;24.03;;;15.93;;
70675;SDS011;59069;52.242;20.900;2022-10-16T14:03:40;14.38;;;8.40;;
70675;SDS011;59069;52.242;20.900;2022-10-16T14:06:11;13.52;;;6.68;;
70675;SDS011;59069;52.242;20.900;2022-10-16T14:08:42;14.57;;;8.15;;
70675;SDS011;59069;52.242;20.900;2022-10-16T14:11:08;22.43;;;15.37;;
70675;SDS011;59069;52.242;20.900;2022-10-16T14:13:36;14.23;;;7.68;;
70675;SDS011;59069;52.242;20.900;2022-10-16T14:16:08;14.48;;;7.18;;
70675;SDS011;59069;52.242;20.900;2022-10-16T14:18:35;11.97;;;6.50;;
70675;SDS011;59069;52.242;20.900;2022-10-16T14:21:04;13.05;;;6.82;;
70675;SDS011;59069;52.242;20.900;2022-10-16T14:23:37;13.48;;;7.28;;
70675;SDS011;59069;52.242;20.900;2022-10-16T14:28:33;12.18;;;6.88;;
70675;SDS011;59069;52.242;20.900;2022-10-16T14:30:59;12.60;;;7.07;;
70675;SDS011;59069;52.242;20.900;2022-10-16T14:38:35;13.52;;;7.07;;
70675;SDS011;59069;52.242;20.900;2022-10-16T14:41:05;12.15;;;7.05;;
70675;SDS011;59069;52.242;20.900;2022-10-16T14:43:37;13.30;;;6.80;;
70675;SDS011;59069;52.242;20.900;2022-10-16T14:46:11;12.25;;;7.20;;
70675;SDS011;59069;52.242;20.900;2022-10-16T14:48:42;13.57;;;7.45;;
70675;SDS011;59069;52.242;20.900;2022-10-16T14:51:18;17.00;;;8.57;;
70675;SDS011;59069;52.242;20.900;2022-10-16T14:53:45;23.05;;;13.95;;
70675;SDS011;59069;52.242;20.900;2022-10-16T14:56:16;26.67;;;16.37;;
70675;SDS011;59069;52.242;20.900;2022-10-16T14:58:45;14.95;;;9.00;;
70675;SDS011;59069;52.242;20.900;2022-10-16T15:01:11;14.18;;;7.63;;
70675;SDS011;59069;52.242;20.900;2022-10-16T15:03:36;16.77;;;7.67;;
70675;SDS011;59069;52.242;20.900;2022-10-16T15:06:03;13.73;;;7.65;;
70675;SDS011;59069;52.242;20.900;2022-10-16T15:08:28;13.63;;;7.97;;
70675;SDS011;59069;52.242;20.900;2022-10-16T15:10:53;14.03;;;8.27;;
70675;SDS011;59069;52.242;20.900;2022-10-16T15:13:19;13.70;;;7.85;;
70675;SDS011;59069;52.242;20.900;2022-10-16T15:15:46;15.50;;;9.00;;
70675;SDS011;59069;52.242;20.900;2022-10-16T15:18:12;14.15;;;7.72;;
70675;SDS011;59069;52.242;20.900;2022-10-16T15:20:40;13.55;;;7.55;;
70675;SDS011;59069;52.242;20.900;2022-10-16T15:23:10;13.33;;;7.53;;
70675;SDS011;59069;52.242;20.900;2022-10-16T15:25:44;16.20;;;8.13;;
70675;SDS011;59069;52.242;20.900;2022-10-16T15:28:17;16.55;;;7.97;;
70675;SDS011;59069;52.242;20.900;2022-10-16T15:30:44;16.35;;;8.07;;
70675;SDS011;59069;52.242;20.900;2022-10-16T15:33:14;14.95;;;7.88;;
70675;SDS011;59069;52.242;20.900;2022-10-16T15:35:41;17.27;;;9.90;;
70675;SDS011;59069;52.242;20.900;2022-10-16T15:38:11;16.27;;;8.88;;
70675;SDS011;59069;52.242;20.900;2022-10-16T15:40:38;15.68;;;8.70;;
70675;SDS011;59069;52.242;20.900;2022-10-16T15:43:03;16.83;;;9.53;;
70675;SDS011;59069;52.242;20.900;2022-10-16T15:45:29;14.00;;;8.40;;
70675;SDS011;59069;52.242;20.900;2022-10-16T15:47:54;14.53;;;8.57;;
70675;SDS011;59069;52.242;20.900;2022-10-16T15:50:20;16.93;;;9.40;;
70675;SDS011;59069;52.242;20.900;2022-10-16T15:52:45;21.50;;;10.95;;
70675;SDS011;59069;52.242;20.900;2022-10-16T15:55:12;15.90;;;9.50;;
70675;SDS011;59069;52.242;20.900;2022-10-16T15:57:39;17.77;;;10.63;;
70675;SDS011;59069;52.242;20.900;2022-10-16T16:00:10;17.27;;;10.13;;
70675;SDS011;59069;52.242;20.900;2022-10-16T16:02:41;16.10;;;9.05;;
70675;SDS011;59069;52.242;20.900;2022-10-16T16:05:07;16.95;;;8.75;;
70675;SDS011;59069;52.242;20.900;2022-10-16T16:07:33;18.55;;;10.63;;
70675;SDS011;59069;52.242;20.900;2022-10-16T16:10:00;17.83;;;8.68;;
70675;SDS011;59069;52.242;20.900;2022-10-16T16:12:25;16.17;;;8.87;;
70675;SDS011;59069;52.242;20.900;2022-10-16T16:14:51;15.80;;;8.70;;
70675;SDS011;59069;52.242;20.900;2022-10-16T16:17:17;15.40;;;8.23;;
70675;SDS011;59069;52.242;20.900;2022-10-16T16:19:43;15.00;;;8.95;;
70675;SDS011;59069;52.242;20.900;2022-10-16T16:22:08;17.63;;;8.70;;
70675;SDS011;59069;52.242;20.900;2022-10-16T16:24:33;17.47;;;9.33;;
70675;SDS011;59069;52.242;20.900;2022-10-16T16:26:59;16.53;;;8.70;;
70675;SDS011;59069;52.242;20.900;2022-10-16T16:29:24;15.43;;;8.93;;